SWA1317 KPWM-KBWI
Flight info
| Callsign | SWA1317 |
|---|---|
| Flight time | N/A |
| Altitude | 38000 |
| Route | NUBLE4 CCC TOPRR Q167 ZIZZI KNUKK ATR LAFLN MIIDY3 |
| Aircraft | B737/M-SADE2E3GIJ4RWZ/LB1D1 |
Departure
| Time | 2026-05-01 15:30 |
|---|---|
| Airport | Portland International Jetport (KPWM) |
Arrival
| Time | N/A |
|---|---|
| Airport | Baltimore/Washington International Thurgood Marshall Airport (KBWI) |
| Time | Latitude | Longitude | Altitude | Speed | Heading |
|---|---|---|---|---|---|
| 2026-05-01 15:03 | 43.64732 | -70.31286 | 69 ft | 0 kts | 64° |
| 2026-05-01 15:20 | 43.64731 | -70.31288 | 61 ft | 2 kts | 64° |
| 2026-05-01 15:20 | 43.64720 | -70.31318 | 70 ft | 4 kts | 51° |
| 2026-05-01 15:20 | 43.64701 | -70.31338 | 68 ft | 4 kts | 12° |
| 2026-05-01 15:21 | 43.64678 | -70.31336 | 69 ft | 4 kts | 328° |
| 2026-05-01 15:21 | 43.64669 | -70.31327 | 70 ft | 1 kts | 320° |
| 2026-05-01 15:26 | 43.64670 | -70.31328 | 68 ft | 1 kts | 320° |
| 2026-05-01 15:26 | 43.64664 | -70.31344 | 62 ft | 3 kts | 230° |
| 2026-05-01 15:26 | 43.64645 | -70.31375 | 63 ft | 5 kts | 231° |
| 2026-05-01 15:26 | 43.64628 | -70.31430 | 65 ft | 7 kts | 257° |
| 2026-05-01 15:27 | 43.64624 | -70.31518 | 65 ft | 13 kts | 272° |
| 2026-05-01 15:27 | 43.64634 | -70.31668 | 64 ft | 16 kts | 275° |
| 2026-05-01 15:27 | 43.64644 | -70.31819 | 66 ft | 16 kts | 275° |
| 2026-05-01 15:28 | 43.64663 | -70.32104 | 79 ft | 14 kts | 275° |
| 2026-05-01 15:28 | 43.64672 | -70.32238 | 81 ft | 14 kts | 275° |
| 2026-05-01 15:28 | 43.64681 | -70.32365 | 83 ft | 13 kts | 275° |
| 2026-05-01 15:29 | 43.64660 | -70.32584 | 86 ft | 12 kts | 189° |
| 2026-05-01 15:29 | 43.64588 | -70.32562 | 87 ft | 11 kts | 117° |
| 2026-05-01 15:29 | 43.64520 | -70.31620 | 74 ft | 124 kts | 95° |
| 2026-05-01 15:30 | 43.64278 | -70.28417 | 1108 ft | 184 kts | 99° |
| 2026-05-01 15:31 | 43.66721 | -70.20754 | 2728 ft | 270 kts | 70° |
| 2026-05-01 15:31 | 43.66366 | -70.15601 | 4461 ft | 278 kts | 109° |
| 2026-05-01 15:32 | 43.64278 | -70.11191 | 6277 ft | 280 kts | 156° |
| 2026-05-01 15:32 | 43.60489 | -70.10598 | 8447 ft | 275 kts | 189° |
| 2026-05-01 15:33 | 43.55523 | -70.13860 | 10747 ft | 288 kts | 229° |
| 2026-05-01 15:34 | 43.51108 | -70.21110 | 11735 ft | 359 kts | 231° |